sensor_id;sensor_type;location;lat;lon;timestamp;P1;durP1;ratioP1;P2;durP2;ratioP2
78895;SDS011;68284;59.124;37.910;2023-05-07T00:00:47;53.05;;;19.40;;
78895;SDS011;68284;59.124;37.910;2023-05-07T00:03:13;30.05;;;13.75;;
78895;SDS011;68284;59.124;37.910;2023-05-07T00:05:40;27.15;;;14.63;;
78895;SDS011;68284;59.124;37.910;2023-05-07T00:08:07;24.45;;;10.38;;
78895;SDS011;68284;59.124;37.910;2023-05-07T00:10:33;23.60;;;9.05;;
78895;SDS011;68284;59.124;37.910;2023-05-07T00:12:59;30.23;;;9.85;;
78895;SDS011;68284;59.124;37.910;2023-05-07T00:15:26;18.83;;;9.65;;
78895;SDS011;68284;59.124;37.910;2023-05-07T00:17:53;21.52;;;11.05;;
78895;SDS011;68284;59.124;37.910;2023-05-07T00:20:19;15.80;;;8.65;;
78895;SDS011;68284;59.124;37.910;2023-05-07T00:22:45;22.55;;;11.05;;
78895;SDS011;68284;59.124;37.910;2023-05-07T00:25:11;29.50;;;13.45;;
78895;SDS011;68284;59.124;37.910;2023-05-07T00:27:37;58.20;;;26.75;;
78895;SDS011;68284;59.124;37.910;2023-05-07T00:30:04;63.60;;;25.90;;
78895;SDS011;68284;59.124;37.910;2023-05-07T00:32:33;76.55;;;32.80;;
78895;SDS011;68284;59.124;37.910;2023-05-07T00:34:59;51.97;;;27.63;;
78895;SDS011;68284;59.124;37.910;2023-05-07T00:37:25;48.45;;;18.52;;
78895;SDS011;68284;59.124;37.910;2023-05-07T00:39:51;50.42;;;21.15;;
78895;SDS011;68284;59.124;37.910;2023-05-07T00:42:17;59.10;;;26.58;;
78895;SDS011;68284;59.124;37.910;2023-05-07T00:44:44;65.38;;;29.60;;
78895;SDS011;68284;59.124;37.910;2023-05-07T00:47:10;80.88;;;31.65;;
78895;SDS011;68284;59.124;37.910;2023-05-07T00:52:05;39.60;;;16.83;;
78895;SDS011;68284;59.124;37.910;2023-05-07T00:54:33;25.00;;;13.80;;
78895;SDS011;68284;59.124;37.910;2023-05-07T00:57:01;22.00;;;9.45;;
78895;SDS011;68284;59.124;37.910;2023-05-07T00:59:28;18.52;;;11.02;;
78895;SDS011;68284;59.124;37.910;2023-05-07T01:01:54;15.30;;;8.32;;
78895;SDS011;68284;59.124;37.910;2023-05-07T01:04:20;21.02;;;8.15;;
78895;SDS011;68284;59.124;37.910;2023-05-07T01:06:47;29.10;;;13.68;;
78895;SDS011;68284;59.124;37.910;2023-05-07T01:09:13;31.48;;;17.92;;
78895;SDS011;68284;59.124;37.910;2023-05-07T01:11:39;44.55;;;15.88;;
78895;SDS011;68284;59.124;37.910;2023-05-07T01:14:06;64.68;;;29.88;;
78895;SDS011;68284;59.124;37.910;2023-05-07T01:19:00;39.85;;;19.35;;
78895;SDS011;68284;59.124;37.910;2023-05-07T01:23:56;38.08;;;19.67;;
78895;SDS011;68284;59.124;37.910;2023-05-07T01:28:49;28.92;;;13.43;;
78895;SDS011;68284;59.124;37.910;2023-05-07T01:31:16;57.53;;;23.75;;
78895;SDS011;68284;59.124;37.910;2023-05-07T01:33:43;72.50;;;30.60;;
78895;SDS011;68284;59.124;37.910;2023-05-07T01:36:11;72.82;;;27.05;;
78895;SDS011;68284;59.124;37.910;2023-05-07T01:38:38;46.75;;;22.17;;
78895;SDS011;68284;59.124;37.910;2023-05-07T01:41:06;28.55;;;13.55;;
78895;SDS011;68284;59.124;37.910;2023-05-07T01:43:33;15.48;;;7.65;;
78895;SDS011;68284;59.124;37.910;2023-05-07T01:46:00;26.70;;;11.82;;
78895;SDS011;68284;59.124;37.910;2023-05-07T01:48:28;50.40;;;19.50;;
78895;SDS011;68284;59.124;37.910;2023-05-07T01:50:55;47.05;;;19.35;;
78895;SDS011;68284;59.124;37.910;2023-05-07T01:53:21;38.10;;;18.75;;
78895;SDS011;68284;59.124;37.910;2023-05-07T01:55:47;51.90;;;19.80;;
78895;SDS011;68284;59.124;37.910;2023-05-07T01:58:15;43.95;;;21.02;;
78895;SDS011;68284;59.124;37.910;2023-05-07T02:00:41;72.85;;;32.50;;
78895;SDS011;68284;59.124;37.910;2023-05-07T02:03:07;79.22;;;28.17;;
78895;SDS011;68284;59.124;37.910;2023-05-07T02:05:47;51.67;;;23.60;;
78895;SDS011;68284;59.124;37.910;2023-05-07T02:08:21;57.80;;;23.75;;
78895;SDS011;68284;59.124;37.910;2023-05-07T02:10:47;52.05;;;23.77;;
78895;SDS011;68284;59.124;37.910;2023-05-07T02:13:15;20.23;;;10.98;;
78895;SDS011;68284;59.124;37.910;2023-05-07T02:15:41;15.43;;;10.25;;
78895;SDS011;68284;59.124;37.910;2023-05-07T02:18:08;30.63;;;14.10;;
78895;SDS011;68284;59.124;37.910;2023-05-07T02:20:35;16.67;;;9.75;;
78895;SDS011;68284;59.124;37.910;2023-05-07T02:23:02;18.48;;;8.80;;
78895;SDS011;68284;59.124;37.910;2023-05-07T02:25:30;24.63;;;13.15;;
78895;SDS011;68284;59.124;37.910;2023-05-07T02:27:56;33.60;;;15.68;;
78895;SDS011;68284;59.124;37.910;2023-05-07T02:30:31;28.85;;;13.25;;
78895;SDS011;68284;59.124;37.910;2023-05-07T02:32:58;24.38;;;10.80;;
78895;SDS011;68284;59.124;37.910;2023-05-07T02:35:25;14.48;;;6.47;;
78895;SDS011;68284;59.124;37.910;2023-05-07T02:37:52;8.15;;;5.60;;
78895;SDS011;68284;59.124;37.910;2023-05-07T02:40:18;8.77;;;6.47;;
78895;SDS011;68284;59.124;37.910;2023-05-07T02:42:44;5.68;;;5.15;;
78895;SDS011;68284;59.124;37.910;2023-05-07T02:45:11;6.03;;;4.47;;
78895;SDS011;68284;59.124;37.910;2023-05-07T02:47:38;4.97;;;4.32;;
78895;SDS011;68284;59.124;37.910;2023-05-07T02:50:04;3.83;;;2.65;;
78895;SDS011;68284;59.124;37.910;2023-05-07T02:52:31;23.05;;;11.65;;
78895;SDS011;68284;59.124;37.910;2023-05-07T02:54:58;50.10;;;22.90;;
78895;SDS011;68284;59.124;37.910;2023-05-07T02:57:24;25.92;;;10.27;;
78895;SDS011;68284;59.124;37.910;2023-05-07T02:59:50;22.85;;;9.68;;
78895;SDS011;68284;59.124;37.910;2023-05-07T03:02:18;15.07;;;7.10;;
78895;SDS011;68284;59.124;37.910;2023-05-07T03:04:44;23.23;;;10.73;;
78895;SDS011;68284;59.124;37.910;2023-05-07T03:07:10;29.63;;;11.60;;
78895;SDS011;68284;59.124;37.910;2023-05-07T03:09:37;59.97;;;23.17;;
78895;SDS011;68284;59.124;37.910;2023-05-07T03:12:03;96.38;;;36.53;;
78895;SDS011;68284;59.124;37.910;2023-05-07T03:14:30;83.28;;;30.60;;
78895;SDS011;68284;59.124;37.910;2023-05-07T03:16:56;72.85;;;25.15;;
78895;SDS011;68284;59.124;37.910;2023-05-07T03:19:22;56.38;;;22.38;;
78895;SDS011;68284;59.124;37.910;2023-05-07T03:21:48;43.55;;;18.50;;
78895;SDS011;68284;59.124;37.910;2023-05-07T03:24:15;46.78;;;18.70;;
78895;SDS011;68284;59.124;37.910;2023-05-07T03:26:41;15.75;;;8.85;;
78895;SDS011;68284;59.124;37.910;2023-05-07T03:29:07;12.13;;;8.35;;
78895;SDS011;68284;59.124;37.910;2023-05-07T03:31:33;14.68;;;7.32;;
78895;SDS011;68284;59.124;37.910;2023-05-07T03:34:01;14.38;;;5.85;;
78895;SDS011;68284;59.124;37.910;2023-05-07T03:36:27;13.20;;;5.20;;
78895;SDS011;68284;59.124;37.910;2023-05-07T03:38:55;12.43;;;5.00;;
78895;SDS011;68284;59.124;37.910;2023-05-07T03:41:24;9.55;;;4.55;;
78895;SDS011;68284;59.124;37.910;2023-05-07T03:43:51;9.13;;;4.47;;
78895;SDS011;68284;59.124;37.910;2023-05-07T03:46:17;9.50;;;4.07;;
78895;SDS011;68284;59.124;37.910;2023-05-07T03:48:44;8.73;;;5.05;;
78895;SDS011;68284;59.124;37.910;2023-05-07T03:51:12;10.07;;;4.68;;
78895;SDS011;68284;59.124;37.910;2023-05-07T03:53:38;13.65;;;4.63;;
78895;SDS011;68284;59.124;37.910;2023-05-07T03:56:05;14.07;;;4.80;;
78895;SDS011;68284;59.124;37.910;2023-05-07T03:58:35;6.18;;;4.82;;
78895;SDS011;68284;59.124;37.910;2023-05-07T04:01:06;9.40;;;4.22;;
78895;SDS011;68284;59.124;37.910;2023-05-07T04:03:33;9.88;;;4.30;;
78895;SDS011;68284;59.124;37.910;2023-05-07T04:08:26;16.08;;;8.73;;
78895;SDS011;68284;59.124;37.910;2023-05-07T04:10:54;12.80;;;8.48;;
78895;SDS011;68284;59.124;37.910;2023-05-07T04:13:21;36.90;;;14.70;;
78895;SDS011;68284;59.124;37.910;2023-05-07T04:15:47;42.35;;;18.08;;
78895;SDS011;68284;59.124;37.910;2023-05-07T04:18:17;45.50;;;20.95;;
78895;SDS011;68284;59.124;37.910;2023-05-07T04:20:45;45.65;;;18.88;;
78895;SDS011;68284;59.124;37.910;2023-05-07T04:23:13;35.65;;;16.45;;
78895;SDS011;68284;59.124;37.910;2023-05-07T04:25:40;48.75;;;21.02;;
78895;SDS011;68284;59.124;37.910;2023-05-07T04:28:23;52.28;;;20.83;;
78895;SDS011;68284;59.124;37.910;2023-05-07T04:30:50;44.00;;;18.63;;
78895;SDS011;68284;59.124;37.910;2023-05-07T04:33:17;44.42;;;18.38;;
78895;SDS011;68284;59.124;37.910;2023-05-07T04:35:44;37.08;;;13.80;;
78895;SDS011;68284;59.124;37.910;2023-05-07T04:38:10;41.20;;;16.05;;
78895;SDS011;68284;59.124;37.910;2023-05-07T04:40:37;47.10;;;15.98;;
78895;SDS011;68284;59.124;37.910;2023-05-07T04:43:03;42.88;;;13.07;;
78895;SDS011;68284;59.124;37.910;2023-05-07T04:45:34;38.15;;;17.38;;
78895;SDS011;68284;59.124;37.910;2023-05-07T04:48:00;23.13;;;12.10;;
78895;SDS011;68284;59.124;37.910;2023-05-07T04:50:29;31.25;;;13.93;;
78895;SDS011;68284;59.124;37.910;2023-05-07T04:52:59;23.83;;;9.88;;
78895;SDS011;68284;59.124;37.910;2023-05-07T04:55:26;29.38;;;12.55;;
78895;SDS011;68284;59.124;37.910;2023-05-07T04:57:52;23.52;;;10.90;;
78895;SDS011;68284;59.124;37.910;2023-05-07T05:00:19;22.77;;;11.88;;
78895;SDS011;68284;59.124;37.910;2023-05-07T05:02:48;16.85;;;7.70;;
78895;SDS011;68284;59.124;37.910;2023-05-07T05:05:18;7.68;;;5.15;;
78895;SDS011;68284;59.124;37.910;2023-05-07T05:07:45;20.67;;;10.00;;
78895;SDS011;68284;59.124;37.910;2023-05-07T05:10:11;42.38;;;14.00;;
78895;SDS011;68284;59.124;37.910;2023-05-07T05:12:39;32.13;;;13.10;;
78895;SDS011;68284;59.124;37.910;2023-05-07T05:15:06;18.20;;;6.45;;
78895;SDS011;68284;59.124;37.910;2023-05-07T05:17:33;11.07;;;7.15;;
78895;SDS011;68284;59.124;37.910;2023-05-07T05:20:03;10.10;;;6.35;;
78895;SDS011;68284;59.124;37.910;2023-05-07T05:22:30;6.10;;;3.08;;
78895;SDS011;68284;59.124;37.910;2023-05-07T05:24:58;15.80;;;8.07;;
78895;SDS011;68284;59.124;37.910;2023-05-07T05:27:24;21.80;;;11.00;;
78895;SDS011;68284;59.124;37.910;2023-05-07T05:29:51;9.27;;;5.15;;
78895;SDS011;68284;59.124;37.910;2023-05-07T05:32:17;8.68;;;4.43;;
78895;SDS011;68284;59.124;37.910;2023-05-07T05:34:44;8.77;;;4.60;;
78895;SDS011;68284;59.124;37.910;2023-05-07T05:37:10;8.98;;;3.60;;
78895;SDS011;68284;59.124;37.910;2023-05-07T05:42:04;6.38;;;3.30;;
78895;SDS011;68284;59.124;37.910;2023-05-07T05:44:33;6.45;;;4.13;;
78895;SDS011;68284;59.124;37.910;2023-05-07T05:46:59;4.28;;;2.75;;
78895;SDS011;68284;59.124;37.910;2023-05-07T05:51:52;14.50;;;6.15;;
78895;SDS011;68284;59.124;37.910;2023-05-07T05:54:19;10.93;;;5.82;;
78895;SDS011;68284;59.124;37.910;2023-05-07T05:56:47;13.85;;;6.78;;
78895;SDS011;68284;59.124;37.910;2023-05-07T05:59:13;10.98;;;3.53;;
78895;SDS011;68284;59.124;37.910;2023-05-07T06:04:06;6.75;;;4.85;;
78895;SDS011;68284;59.124;37.910;2023-05-07T06:06:33;2.30;;;1.20;;
78895;SDS011;68284;59.124;37.910;2023-05-07T06:09:01;2.03;;;1.92;;
78895;SDS011;68284;59.124;37.910;2023-05-07T06:11:34;1.13;;;0.60;;
78895;SDS011;68284;59.124;37.910;2023-05-07T06:16:28;2.25;;;2.08;;
78895;SDS011;68284;59.124;37.910;2023-05-07T06:18:56;4.15;;;2.30;;
78895;SDS011;68284;59.124;37.910;2023-05-07T06:21:22;4.28;;;3.50;;
78895;SDS011;68284;59.124;37.910;2023-05-07T06:23:48;6.45;;;3.00;;
78895;SDS011;68284;59.124;37.910;2023-05-07T06:26:14;5.68;;;4.53;;
78895;SDS011;68284;59.124;37.910;2023-05-07T06:28:44;4.65;;;3.38;;
78895;SDS011;68284;59.124;37.910;2023-05-07T06:31:16;3.38;;;2.55;;
78895;SDS011;68284;59.124;37.910;2023-05-07T06:34:00;2.97;;;1.42;;
78895;SDS011;68284;59.124;37.910;2023-05-07T06:39:05;3.58;;;2.47;;
78895;SDS011;68284;59.124;37.910;2023-05-07T06:41:32;3.97;;;2.92;;
78895;SDS011;68284;59.124;37.910;2023-05-07T06:44:05;4.43;;;2.38;;
78895;SDS011;68284;59.124;37.910;2023-05-07T06:46:37;7.28;;;4.28;;
78895;SDS011;68284;59.124;37.910;2023-05-07T06:49:05;7.70;;;4.22;;
78895;SDS011;68284;59.124;37.910;2023-05-07T06:51:31;8.18;;;4.25;;
78895;SDS011;68284;59.124;37.910;2023-05-07T06:54:03;2.22;;;1.23;;
78895;SDS011;68284;59.124;37.910;2023-05-07T06:56:31;31.67;;;17.75;;
78895;SDS011;68284;59.124;37.910;2023-05-07T06:58:59;12.85;;;6.30;;
78895;SDS011;68284;59.124;37.910;2023-05-07T07:01:29;2.42;;;1.30;;
78895;SDS011;68284;59.124;37.910;2023-05-07T07:06:22;2.58;;;2.38;;
78895;SDS011;68284;59.124;37.910;2023-05-07T07:08:48;5.53;;;3.08;;
78895;SDS011;68284;59.124;37.910;2023-05-07T07:11:16;6.85;;;4.63;;
78895;SDS011;68284;59.124;37.910;2023-05-07T07:13:42;10.38;;;4.75;;
78895;SDS011;68284;59.124;37.910;2023-05-07T07:16:09;10.65;;;4.35;;
78895;SDS011;68284;59.124;37.910;2023-05-07T07:18:36;12.05;;;4.30;;
78895;SDS011;68284;59.124;37.910;2023-05-07T07:21:03;11.52;;;3.70;;
78895;SDS011;68284;59.124;37.910;2023-05-07T07:23:30;5.40;;;2.30;;
78895;SDS011;68284;59.124;37.910;2023-05-07T07:25:56;5.75;;;1.75;;
78895;SDS011;68284;59.124;37.910;2023-05-07T07:28:22;5.68;;;2.00;;
78895;SDS011;68284;59.124;37.910;2023-05-07T07:30:51;12.27;;;4.45;;
78895;SDS011;68284;59.124;37.910;2023-05-07T07:33:17;3.83;;;1.77;;
78895;SDS011;68284;59.124;37.910;2023-05-07T07:35:44;4.03;;;1.20;;
78895;SDS011;68284;59.124;37.910;2023-05-07T07:38:10;3.15;;;1.65;;
78895;SDS011;68284;59.124;37.910;2023-05-07T07:40:36;2.00;;;0.80;;
78895;SDS011;68284;59.124;37.910;2023-05-07T07:43:04;1.15;;;0.75;;
78895;SDS011;68284;59.124;37.910;2023-05-07T07:45:31;1.52;;;1.40;;
78895;SDS011;68284;59.124;37.910;2023-05-07T07:47:57;2.83;;;1.00;;
78895;SDS011;68284;59.124;37.910;2023-05-07T07:50:24;2.47;;;1.88;;
78895;SDS011;68284;59.124;37.910;2023-05-07T07:52:50;1.92;;;1.83;;
78895;SDS011;68284;59.124;37.910;2023-05-07T07:55:19;6.22;;;1.73;;
78895;SDS011;68284;59.124;37.910;2023-05-07T07:57:49;7.57;;;2.97;;
78895;SDS011;68284;59.124;37.910;2023-05-07T08:00:16;18.83;;;5.63;;
78895;SDS011;68284;59.124;37.910;2023-05-07T08:02:42;3.20;;;1.30;;
78895;SDS011;68284;59.124;37.910;2023-05-07T08:05:12;2.70;;;1.85;;
78895;SDS011;68284;59.124;37.910;2023-05-07T08:07:38;4.65;;;1.70;;
78895;SDS011;68284;59.124;37.910;2023-05-07T08:10:05;2.65;;;1.67;;
78895;SDS011;68284;59.124;37.910;2023-05-07T08:12:32;1.92;;;1.10;;
78895;SDS011;68284;59.124;37.910;2023-05-07T08:17:24;19.30;;;8.18;;
78895;SDS011;68284;59.124;37.910;2023-05-07T08:19:51;22.23;;;9.90;;
78895;SDS011;68284;59.124;37.910;2023-05-07T08:22:18;11.23;;;5.85;;
78895;SDS011;68284;59.124;37.910;2023-05-07T08:24:44;11.95;;;3.25;;
78895;SDS011;68284;59.124;37.910;2023-05-07T08:27:11;3.72;;;1.73;;
78895;SDS011;68284;59.124;37.910;2023-05-07T08:29:40;9.20;;;4.10;;
78895;SDS011;68284;59.124;37.910;2023-05-07T08:32:07;3.67;;;1.55;;
78895;SDS011;68284;59.124;37.910;2023-05-07T08:34:33;5.15;;;3.08;;
78895;SDS011;68284;59.124;37.910;2023-05-07T08:37:02;4.60;;;3.33;;
78895;SDS011;68284;59.124;37.910;2023-05-07T08:39:29;2.70;;;1.42;;
78895;SDS011;68284;59.124;37.910;2023-05-07T08:41:56;3.25;;;1.10;;
78895;SDS011;68284;59.124;37.910;2023-05-07T08:44:26;8.15;;;3.47;;
78895;SDS011;68284;59.124;37.910;2023-05-07T08:46:56;1.67;;;0.80;;
78895;SDS011;68284;59.124;37.910;2023-05-07T08:49:24;4.30;;;3.20;;
78895;SDS011;68284;59.124;37.910;2023-05-07T08:51:52;3.83;;;2.03;;
78895;SDS011;68284;59.124;37.910;2023-05-07T08:54:20;3.83;;;1.85;;
78895;SDS011;68284;59.124;37.910;2023-05-07T08:56:47;2.10;;;0.98;;
78895;SDS011;68284;59.124;37.910;2023-05-07T08:59:14;0.98;;;0.60;;
78895;SDS011;68284;59.124;37.910;2023-05-07T09:01:42;1.75;;;1.65;;
78895;SDS011;68284;59.124;37.910;2023-05-07T09:04:09;2.45;;;1.42;;
78895;SDS011;68284;59.124;37.910;2023-05-07T09:06:36;3.13;;;0.60;;
78895;SDS011;68284;59.124;37.910;2023-05-07T09:09:05;3.67;;;3.15;;
78895;SDS011;68284;59.124;37.910;2023-05-07T09:11:32;4.47;;;2.63;;
78895;SDS011;68284;59.124;37.910;2023-05-07T09:14:00;1.33;;;1.00;;
78895;SDS011;68284;59.124;37.910;2023-05-07T09:16:30;10.35;;;2.50;;
78895;SDS011;68284;59.124;37.910;2023-05-07T09:18:59;6.20;;;2.67;;
78895;SDS011;68284;59.124;37.910;2023-05-07T09:21:29;2.33;;;0.80;;
78895;SDS011;68284;59.124;37.910;2023-05-07T09:23:58;1.05;;;0.95;;
78895;SDS011;68284;59.124;37.910;2023-05-07T09:26:33;2.78;;;2.65;;
78895;SDS011;68284;59.124;37.910;2023-05-07T09:29:00;0.88;;;0.85;;
78895;SDS011;68284;59.124;37.910;2023-05-07T09:31:27;1.70;;;1.58;;
78895;SDS011;68284;59.124;37.910;2023-05-07T09:33:55;18.90;;;7.80;;
78895;SDS011;68284;59.124;37.910;2023-05-07T09:36:23;8.55;;;6.68;;
78895;SDS011;68284;59.124;37.910;2023-05-07T09:41:18;3.78;;;1.92;;
78895;SDS011;68284;59.124;37.910;2023-05-07T09:44:02;15.70;;;6.45;;
78895;SDS011;68284;59.124;37.910;2023-05-07T09:46:36;12.65;;;4.93;;
78895;SDS011;68284;59.124;37.910;2023-05-07T09:49:11;28.70;;;10.43;;
78895;SDS011;68284;59.124;37.910;2023-05-07T09:51:50;21.42;;;9.18;;
78895;SDS011;68284;59.124;37.910;2023-05-07T09:54:37;29.40;;;13.50;;
78895;SDS011;68284;59.124;37.910;2023-05-07T09:57:05;7.50;;;5.03;;
78895;SDS011;68284;59.124;37.910;2023-05-07T09:59:34;7.25;;;4.25;;
78895;SDS011;68284;59.124;37.910;2023-05-07T10:02:05;13.60;;;5.85;;
78895;SDS011;68284;59.124;37.910;2023-05-07T10:04:38;10.80;;;4.03;;
78895;SDS011;68284;59.124;37.910;2023-05-07T10:07:06;5.07;;;1.90;;
78895;SDS011;68284;59.124;37.910;2023-05-07T10:09:34;8.45;;;3.25;;
78895;SDS011;68284;59.124;37.910;2023-05-07T10:12:05;7.47;;;3.00;;
78895;SDS011;68284;59.124;37.910;2023-05-07T10:14:33;2.40;;;2.13;;
78895;SDS011;68284;59.124;37.910;2023-05-07T10:17:00;3.65;;;3.08;;
78895;SDS011;68284;59.124;37.910;2023-05-07T10:19:29;3.88;;;0.88;;
78895;SDS011;68284;59.124;37.910;2023-05-07T10:21:59;3.15;;;1.45;;
78895;SDS011;68284;59.124;37.910;2023-05-07T10:24:32;9.23;;;5.25;;
78895;SDS011;68284;59.124;37.910;2023-05-07T10:27:10;3.80;;;1.77;;
78895;SDS011;68284;59.124;37.910;2023-05-07T10:34:54;2.38;;;2.20;;
78895;SDS011;68284;59.124;37.910;2023-05-07T10:37:24;0.93;;;0.65;;
78895;SDS011;68284;59.124;37.910;2023-05-07T10:39:54;14.10;;;6.47;;
78895;SDS011;68284;59.124;37.910;2023-05-07T10:42:20;12.93;;;5.28;;
78895;SDS011;68284;59.124;37.910;2023-05-07T10:44:51;12.98;;;5.20;;
78895;SDS011;68284;59.124;37.910;2023-05-07T10:47:23;9.52;;;4.13;;
78895;SDS011;68284;59.124;37.910;2023-05-07T10:52:26;6.55;;;3.95;;
78895;SDS011;68284;59.124;37.910;2023-05-07T10:55:41;10.20;;;2.22;;
78895;SDS011;68284;59.124;37.910;2023-05-07T10:58:29;3.05;;;0.93;;
78895;SDS011;68284;59.124;37.910;2023-05-07T11:04:35;1.90;;;1.50;;
78895;SDS011;68284;59.124;37.910;2023-05-07T11:07:21;6.43;;;2.22;;
78895;SDS011;68284;59.124;37.910;2023-05-07T11:12:50;2.88;;;2.47;;
78895;SDS011;68284;59.124;37.910;2023-05-07T11:15:35;4.03;;;2.33;;
78895;SDS011;68284;59.124;37.910;2023-05-07T11:18:10;5.15;;;2.75;;
78895;SDS011;68284;59.124;37.910;2023-05-07T11:20:46;11.70;;;7.15;;
78895;SDS011;68284;59.124;37.910;2023-05-07T11:26:30;20.35;;;8.20;;
78895;SDS011;68284;59.124;37.910;2023-05-07T11:29:10;8.18;;;4.72;;
78895;SDS011;68284;59.124;37.910;2023-05-07T11:31:38;2.10;;;1.90;;
78895;SDS011;68284;59.124;37.910;2023-05-07T11:34:07;3.33;;;2.28;;
78895;SDS011;68284;59.124;37.910;2023-05-07T11:36:34;2.55;;;1.90;;
78895;SDS011;68284;59.124;37.910;2023-05-07T11:39:22;6.22;;;2.45;;
78895;SDS011;68284;59.124;37.910;2023-05-07T11:41:59;2.70;;;1.60;;
78895;SDS011;68284;59.124;37.910;2023-05-07T11:44:38;1.30;;;1.20;;
78895;SDS011;68284;59.124;37.910;2023-05-07T11:47:09;2.67;;;0.82;;
78895;SDS011;68284;59.124;37.910;2023-05-07T11:49:36;4.80;;;2.50;;
78895;SDS011;68284;59.124;37.910;2023-05-07T11:52:03;2.63;;;1.65;;
78895;SDS011;68284;59.124;37.910;2023-05-07T11:54:36;2.60;;;0.77;;
78895;SDS011;68284;59.124;37.910;2023-05-07T11:57:04;3.40;;;1.02;;
78895;SDS011;68284;59.124;37.910;2023-05-07T11:59:39;5.88;;;1.35;;
78895;SDS011;68284;59.124;37.910;2023-05-07T12:02:06;4.15;;;1.30;;
78895;SDS011;68284;59.124;37.910;2023-05-07T12:04:33;4.18;;;1.10;;
78895;SDS011;68284;59.124;37.910;2023-05-07T12:06:59;0.63;;;0.40;;
78895;SDS011;68284;59.124;37.910;2023-05-07T12:11:51;0.77;;;0.70;;
78895;SDS011;68284;59.124;37.910;2023-05-07T12:14:18;1.13;;;1.08;;
78895;SDS011;68284;59.124;37.910;2023-05-07T12:16:45;1.20;;;1.17;;
78895;SDS011;68284;59.124;37.910;2023-05-07T12:19:12;0.68;;;0.68;;
78895;SDS011;68284;59.124;37.910;2023-05-07T12:21:39;2.45;;;1.45;;
78895;SDS011;68284;59.124;37.910;2023-05-07T12:24:06;2.85;;;1.40;;
78895;SDS011;68284;59.124;37.910;2023-05-07T12:26:37;0.50;;;0.50;;
78895;SDS011;68284;59.124;37.910;2023-05-07T12:29:04;5.10;;;1.70;;
78895;SDS011;68284;59.124;37.910;2023-05-07T12:31:31;2.17;;;0.90;;
78895;SDS011;68284;59.124;37.910;2023-05-07T12:36:23;4.43;;;2.03;;
78895;SDS011;68284;59.124;37.910;2023-05-07T12:38:50;2.03;;;1.92;;
78895;SDS011;68284;59.124;37.910;2023-05-07T12:41:17;3.72;;;1.75;;
78895;SDS011;68284;59.124;37.910;2023-05-07T12:43:44;1.52;;;1.42;;
78895;SDS011;68284;59.124;37.910;2023-05-07T12:46:11;1.00;;;0.47;;
78895;SDS011;68284;59.124;37.910;2023-05-07T12:48:43;0.80;;;0.80;;
78895;SDS011;68284;59.124;37.910;2023-05-07T12:51:11;1.88;;;1.33;;
78895;SDS011;68284;59.124;37.910;2023-05-07T12:53:40;0.80;;;0.50;;
78895;SDS011;68284;59.124;37.910;2023-05-07T12:56:09;3.00;;;0.80;;
78895;SDS011;68284;59.124;37.910;2023-05-07T13:01:05;0.55;;;0.40;;
78895;SDS011;68284;59.124;37.910;2023-05-07T13:03:35;1.20;;;0.77;;
78895;SDS011;68284;59.124;37.910;2023-05-07T13:06:05;1.25;;;1.15;;
78895;SDS011;68284;59.124;37.910;2023-05-07T13:08:36;0.70;;;0.45;;
78895;SDS011;68284;59.124;37.910;2023-05-07T13:11:07;1.33;;;1.23;;
78895;SDS011;68284;59.124;37.910;2023-05-07T13:13:35;1.55;;;0.82;;
78895;SDS011;68284;59.124;37.910;2023-05-07T13:16:02;7.72;;;1.48;;
78895;SDS011;68284;59.124;37.910;2023-05-07T13:18:30;1.00;;;0.80;;
78895;SDS011;68284;59.124;37.910;2023-05-07T13:20:56;2.80;;;1.10;;
78895;SDS011;68284;59.124;37.910;2023-05-07T13:23:23;1.95;;;1.20;;
78895;SDS011;68284;59.124;37.910;2023-05-07T13:25:49;2.55;;;1.50;;
78895;SDS011;68284;59.124;37.910;2023-05-07T13:28:16;0.82;;;0.82;;
78895;SDS011;68284;59.124;37.910;2023-05-07T13:30:42;1.08;;;0.95;;
78895;SDS011;68284;59.124;37.910;2023-05-07T13:33:10;2.17;;;0.80;;
78895;SDS011;68284;59.124;37.910;2023-05-07T13:35:36;0.63;;;0.63;;
78895;SDS011;68284;59.124;37.910;2023-05-07T13:38:03;1.40;;;0.77;;
78895;SDS011;68284;59.124;37.910;2023-05-07T13:40:29;1.77;;;0.75;;
78895;SDS011;68284;59.124;37.910;2023-05-07T13:42:59;1.08;;;0.82;;
78895;SDS011;68284;59.124;37.910;2023-05-07T13:45:30;0.47;;;0.45;;
78895;SDS011;68284;59.124;37.910;2023-05-07T13:47:56;0.93;;;0.77;;
78895;SDS011;68284;59.124;37.910;2023-05-07T13:50:23;1.10;;;0.80;;
78895;SDS011;68284;59.124;37.910;2023-05-07T13:52:49;0.70;;;0.70;;
78895;SDS011;68284;59.124;37.910;2023-05-07T13:55:19;1.13;;;1.02;;
78895;SDS011;68284;59.124;37.910;2023-05-07T13:57:46;1.67;;;1.10;;
78895;SDS011;68284;59.124;37.910;2023-05-07T14:00:14;1.48;;;0.90;;
78895;SDS011;68284;59.124;37.910;2023-05-07T14:02:41;4.47;;;0.75;;
78895;SDS011;68284;59.124;37.910;2023-05-07T14:05:09;0.90;;;0.90;;
78895;SDS011;68284;59.124;37.910;2023-05-07T14:07:35;0.80;;;0.52;;
78895;SDS011;68284;59.124;37.910;2023-05-07T14:10:02;1.08;;;0.60;;
78895;SDS011;68284;59.124;37.910;2023-05-07T14:12:29;0.50;;;0.50;;
78895;SDS011;68284;59.124;37.910;2023-05-07T14:14:57;4.75;;;1.13;;
78895;SDS011;68284;59.124;37.910;2023-05-07T14:17:24;1.38;;;0.90;;
78895;SDS011;68284;59.124;37.910;2023-05-07T14:19:52;1.67;;;1.02;;
78895;SDS011;68284;59.124;37.910;2023-05-07T14:22:22;0.77;;;0.30;;
78895;SDS011;68284;59.124;37.910;2023-05-07T14:24:49;0.50;;;0.50;;
78895;SDS011;68284;59.124;37.910;2023-05-07T14:27:15;0.50;;;0.50;;
78895;SDS011;68284;59.124;37.910;2023-05-07T14:29:42;0.80;;;0.45;;
78895;SDS011;68284;59.124;37.910;2023-05-07T14:32:08;3.00;;;0.55;;
78895;SDS011;68284;59.124;37.910;2023-05-07T14:34:35;2.03;;;0.88;;
78895;SDS011;68284;59.124;37.910;2023-05-07T14:37:01;0.98;;;0.45;;
78895;SDS011;68284;59.124;37.910;2023-05-07T14:39:27;1.10;;;0.85;;
78895;SDS011;68284;59.124;37.910;2023-05-07T14:41:54;2.67;;;1.08;;
78895;SDS011;68284;59.124;37.910;2023-05-07T14:44:21;1.40;;;0.93;;
78895;SDS011;68284;59.124;37.910;2023-05-07T14:46:47;4.60;;;2.38;;
78895;SDS011;68284;59.124;37.910;2023-05-07T14:49:14;6.47;;;2.38;;
78895;SDS011;68284;59.124;37.910;2023-05-07T14:51:45;4.68;;;0.80;;
78895;SDS011;68284;59.124;37.910;2023-05-07T14:54:13;1.67;;;0.75;;
78895;SDS011;68284;59.124;37.910;2023-05-07T14:56:40;2.15;;;1.30;;
78895;SDS011;68284;59.124;37.910;2023-05-07T14:59:07;3.13;;;2.10;;
78895;SDS011;68284;59.124;37.910;2023-05-07T15:01:34;2.08;;;1.27;;
78895;SDS011;68284;59.124;37.910;2023-05-07T15:04:03;2.80;;;1.38;;
78895;SDS011;68284;59.124;37.910;2023-05-07T15:06:30;1.55;;;1.45;;
78895;SDS011;68284;59.124;37.910;2023-05-07T15:08:57;4.53;;;1.90;;
78895;SDS011;68284;59.124;37.910;2023-05-07T15:13:49;2.80;;;1.40;;
78895;SDS011;68284;59.124;37.910;2023-05-07T15:16:16;16.33;;;8.20;;
78895;SDS011;68284;59.124;37.910;2023-05-07T15:21:08;17.05;;;7.38;;
78895;SDS011;68284;59.124;37.910;2023-05-07T15:23:35;9.23;;;4.97;;
78895;SDS011;68284;59.124;37.910;2023-05-07T15:26:01;10.60;;;3.90;;
78895;SDS011;68284;59.124;37.910;2023-05-07T15:28:28;8.63;;;3.33;;
78895;SDS011;68284;59.124;37.910;2023-05-07T15:30:58;29.40;;;10.95;;
78895;SDS011;68284;59.124;37.910;2023-05-07T15:33:24;17.33;;;7.63;;